createdAt,value
2018-01-08T13:18:21.056Z,2.80
2018-01-08T13:20:47.604Z,3.00
2018-01-08T13:23:14.019Z,3.30
2018-01-08T13:25:40.448Z,3.80
2018-01-08T13:28:07.063Z,4.30
2018-01-08T13:30:33.530Z,4.40
2018-01-08T13:33:01.562Z,4.90
2018-01-08T13:35:28.698Z,5.00
2018-01-08T13:37:55.864Z,4.80
2018-01-08T13:40:22.332Z,4.80
2018-01-08T13:42:48.842Z,4.80
2018-01-08T13:45:15.286Z,4.70
2018-01-08T13:47:41.756Z,4.60
2018-01-08T13:50:08.199Z,4.90
2018-01-08T13:52:34.627Z,5.40
2018-01-08T13:55:01.066Z,5.40
2018-01-08T13:57:27.517Z,5.70
2018-01-08T13:59:54.719Z,5.10
2018-01-08T14:02:21.245Z,5.10
2018-01-08T14:04:47.675Z,5.10
2018-01-08T14:07:14.120Z,5.00
2018-01-08T14:09:40.630Z,4.80
2018-01-08T14:12:07.817Z,4.80
2018-01-08T14:14:34.269Z,4.80
2018-01-08T14:17:00.675Z,4.80
2018-01-08T14:19:27.080Z,4.50
2018-01-08T14:21:53.503Z,4.60
2018-01-08T14:24:19.943Z,4.80
2018-01-08T14:26:46.351Z,4.90
2018-01-08T14:29:13.538Z,4.90
2018-01-08T14:31:39.949Z,4.90
2018-01-08T14:34:06.399Z,4.50
2018-01-08T14:36:32.783Z,4.50
2018-01-08T14:38:59.231Z,4.60
2018-01-08T14:41:25.645Z,4.60
2018-01-08T14:43:53.543Z,4.60
2018-01-08T14:46:20.709Z,4.80
2018-01-08T14:48:47.084Z,4.80
2018-01-08T14:51:15.045Z,4.60
2018-01-08T14:53:41.490Z,4.60
2018-01-08T14:56:07.875Z,4.50
2018-01-08T14:58:34.306Z,4.30
2018-01-08T15:01:00.762Z,4.60
2018-01-08T15:03:27.175Z,4.60
2018-01-08T15:05:53.555Z,4.60
2018-01-08T15:08:20.009Z,4.30
2018-01-08T15:10:47.201Z,4.30
2018-01-08T15:13:13.647Z,4.30
2018-01-08T15:15:40.093Z,4.40
2018-01-08T15:18:06.513Z,4.30
2018-01-08T15:20:33.009Z,4.60
2018-01-08T15:22:59.463Z,4.90
2018-01-08T15:25:25.895Z,4.80
2018-01-08T15:27:52.297Z,5.00
2018-01-08T15:30:19.428Z,4.70
2018-01-08T15:32:46.559Z,4.80
2018-01-08T15:35:12.951Z,4.80
2018-01-08T15:37:39.338Z,4.60
2018-01-08T15:40:05.740Z,4.50
2018-01-08T15:42:32.148Z,4.30
2018-01-08T15:44:58.565Z,4.30
2018-01-08T15:47:24.962Z,4.30
2018-01-08T15:49:51.347Z,4.20
2018-01-08T15:52:17.751Z,4.00
2018-01-08T15:54:44.891Z,3.90
2018-01-08T15:57:12.056Z,3.90
2018-01-08T15:59:39.196Z,3.80
2018-01-08T16:02:06.345Z,3.90
2018-01-08T16:04:33.461Z,3.90
2018-01-08T16:07:01.364Z,4.20
2018-01-08T16:09:27.773Z,4.20
2018-01-08T16:11:54.155Z,4.40
2018-01-08T16:14:20.551Z,4.50
2018-01-08T16:16:46.966Z,4.40
2018-01-08T16:19:13.368Z,4.40
2018-01-08T16:21:39.770Z,4.50
2018-01-08T16:24:06.166Z,4.30
2018-01-08T16:26:33.483Z,4.40
2018-01-08T16:28:59.886Z,4.40
2018-01-08T16:31:26.302Z,4.30
2018-01-08T16:33:53.446Z,4.20
2018-01-08T16:36:20.568Z,3.90
2018-01-08T16:38:46.978Z,3.90
2018-01-08T16:41:13.365Z,4.10
2018-01-08T16:43:40.506Z,3.80
2018-01-08T16:46:07.644Z,4.00
2018-01-08T16:48:34.806Z,3.80
2018-01-08T16:51:01.923Z,4.00
2018-01-08T16:53:29.061Z,4.10
2018-01-08T16:55:55.488Z,4.10
2018-01-08T16:58:21.900Z,3.80
2018-01-08T17:00:48.345Z,3.60
2018-01-08T17:03:14.808Z,3.60
2018-01-08T17:05:41.296Z,3.50
2018-01-08T17:08:07.816Z,3.40
2018-01-08T17:10:34.263Z,3.60
2018-01-08T17:13:00.733Z,3.70
2018-01-08T17:15:27.138Z,3.80
2018-01-08T17:17:53.581Z,3.80
2018-01-08T17:20:20.094Z,3.80
2018-01-08T17:22:46.540Z,3.80
2018-01-08T17:25:13.721Z,3.90
2018-01-08T17:27:40.119Z,3.80
2018-01-08T17:30:06.525Z,3.80
2018-01-08T17:32:33.681Z,3.70
2018-01-08T17:35:00.839Z,3.50
2018-01-08T17:37:27.973Z,3.50
2018-01-08T17:39:55.112Z,3.50
2018-01-08T17:42:22.279Z,3.40
2018-01-08T17:44:49.400Z,3.40
2018-01-08T17:47:15.838Z,3.40
2018-01-08T17:49:42.996Z,3.30
2018-01-08T17:52:10.144Z,3.10
2018-01-08T17:54:36.538Z,3.10
2018-01-08T17:57:02.955Z,3.30
2018-01-08T17:59:29.344Z,3.50
2018-01-08T18:01:57.364Z,3.50
2018-01-08T18:04:23.727Z,3.50
2018-01-08T18:06:50.131Z,3.80
2018-01-08T18:09:16.540Z,3.70
2018-01-08T18:11:43.011Z,3.70
2018-01-08T18:14:09.407Z,3.60
2018-01-08T18:16:35.839Z,3.60
2018-01-08T18:19:02.244Z,3.60
2018-01-08T18:21:29.420Z,4.00
2018-01-08T18:23:55.826Z,3.90
2018-01-08T18:26:22.281Z,3.90
2018-01-08T18:28:48.676Z,4.10
2018-01-08T18:31:15.116Z,4.00
2018-01-08T18:33:41.523Z,3.90
2018-01-08T18:36:07.916Z,4.10
2018-01-08T18:38:34.346Z,4.10
2018-01-08T18:41:01.496Z,3.70
2018-01-08T18:43:27.902Z,3.70
2018-01-08T18:45:55.058Z,3.90
2018-01-08T18:48:22.209Z,3.90
2018-01-08T18:50:49.395Z,3.70
2018-01-08T18:53:15.792Z,3.70
2018-01-08T18:55:42.929Z,3.80
2018-01-08T18:58:09.358Z,3.80
2018-01-08T19:00:35.850Z,4.00
2018-01-08T19:03:02.315Z,4.20
2018-01-08T19:05:29.508Z,4.50
2018-01-08T19:07:55.906Z,4.50
2018-01-08T19:10:22.299Z,4.40
2018-01-08T19:12:48.744Z,4.20
2018-01-08T19:15:15.191Z,4.40
2018-01-08T19:17:41.586Z,4.50
2018-01-08T19:20:08.014Z,4.70
2018-01-08T19:22:34.485Z,4.90
2018-01-08T19:25:00.903Z,5.10
2018-01-08T19:27:27.314Z,5.10
2018-01-08T19:29:53.709Z,5.10
2018-01-08T19:32:20.856Z,4.90
2018-01-08T19:34:48.010Z,4.60
2018-01-08T19:37:15.152Z,4.50
2018-01-08T19:39:41.547Z,4.50
2018-01-08T19:42:07.917Z,4.30
2018-01-08T19:44:34.320Z,4.50
2018-01-08T19:47:00.717Z,4.40
2018-01-08T19:49:27.095Z,4.60
2018-01-08T19:51:53.550Z,4.60
2018-01-08T19:54:19.947Z,4.80
2018-01-08T19:56:46.344Z,4.80
2018-01-08T19:59:13.568Z,4.20
2018-01-08T20:01:40.723Z,4.10
2018-01-08T20:04:07.852Z,4.30
2018-01-08T20:06:34.297Z,4.30
2018-01-08T20:09:01.476Z,3.90
2018-01-08T20:11:27.902Z,3.80
2018-01-08T20:13:55.031Z,3.60
2018-01-08T20:16:22.151Z,3.40
2018-01-08T20:18:48.576Z,3.40
2018-01-08T20:21:14.971Z,3.60
2018-01-08T20:23:41.437Z,3.50
2018-01-08T20:26:07.836Z,3.60
2018-01-08T20:28:34.236Z,3.50
2018-01-08T20:31:00.683Z,3.40
2018-01-08T20:33:27.853Z,3.30
2018-01-08T20:35:54.252Z,3.30
2018-01-08T20:38:20.654Z,3.40
2018-01-08T20:40:47.038Z,3.30
2018-01-08T20:43:14.205Z,3.10
2018-01-08T20:45:40.627Z,3.10
2018-01-08T20:48:07.022Z,3.00
2018-01-08T20:50:33.417Z,3.00
2018-01-08T20:52:59.789Z,3.10
2018-01-08T20:55:27.656Z,3.00
2018-01-08T20:57:54.057Z,3.00
2018-01-08T21:00:20.487Z,3.00
2018-01-08T21:02:46.888Z,2.90
2018-01-08T21:05:13.292Z,2.90
2018-01-08T21:07:40.432Z,2.90
2018-01-08T21:10:06.803Z,2.90
2018-01-08T21:12:33.228Z,2.90
2018-01-08T21:15:00.360Z,2.70
2018-01-08T21:17:27.499Z,2.70
2018-01-08T21:19:53.891Z,2.70
2018-01-08T21:22:20.325Z,2.90
2018-01-08T21:24:46.710Z,2.90
2018-01-08T21:27:13.875Z,3.10
2018-01-08T21:29:40.271Z,3.10
2018-01-08T21:32:06.690Z,3.50
2018-01-08T21:34:33.077Z,3.70
2018-01-08T21:36:59.483Z,3.90
2018-01-08T21:39:26.624Z,4.30
2018-01-08T21:41:52.996Z,4.30
2018-01-08T21:44:19.388Z,4.60
2018-01-08T21:46:45.771Z,4.80
2018-01-08T21:49:12.168Z,4.70
2018-01-08T21:51:39.302Z,4.80
2018-01-08T21:54:05.695Z,4.80
2018-01-08T21:56:32.079Z,4.60
2018-01-08T21:58:59.255Z,4.60
2018-01-08T22:01:25.658Z,4.60
2018-01-08T22:03:52.802Z,4.80
2018-01-08T22:06:19.981Z,4.50
2018-01-08T22:08:46.354Z,4.50
2018-01-08T22:11:12.742Z,4.60
2018-01-08T22:13:39.123Z,4.50
2018-01-08T22:16:05.505Z,4.10
2018-01-08T22:18:31.941Z,4.10
2018-01-08T22:20:58.443Z,3.80
2018-01-08T22:23:24.805Z,3.90
2018-01-08T22:25:51.186Z,3.80
2018-01-08T22:28:17.591Z,3.80
2018-01-08T22:30:43.987Z,3.90
2018-01-08T22:33:11.110Z,4.10
2018-01-08T22:35:38.995Z,4.10
2018-01-08T22:38:06.146Z,4.00
2018-01-08T22:40:32.531Z,4.00
2018-01-08T22:42:58.936Z,4.00
2018-01-08T22:45:25.327Z,4.00
2018-01-08T22:47:51.711Z,4.00
2018-01-08T22:50:18.109Z,3.80
2018-01-08T22:52:45.256Z,3.80
2018-01-08T22:55:12.391Z,4.00
2018-01-08T22:57:38.776Z,4.00
2018-01-08T23:00:05.183Z,4.00
2018-01-08T23:02:32.303Z,4.10
2018-01-08T23:04:58.713Z,4.00
2018-01-08T23:07:25.102Z,4.40
2018-01-08T23:09:51.495Z,4.80
2018-01-08T23:12:19.401Z,5.10
2018-01-08T23:14:46.531Z,4.90
2018-01-08T23:17:13.647Z,4.90
2018-01-08T23:19:40.035Z,4.90
2018-01-08T23:22:06.427Z,4.90
2018-01-08T23:24:34.318Z,4.80
2018-01-08T23:27:01.482Z,4.80
2018-01-08T23:29:27.932Z,4.70
2018-01-08T23:31:54.338Z,4.80
2018-01-08T23:34:20.750Z,4.70
2018-01-08T23:36:47.908Z,4.70
2018-01-08T23:39:15.062Z,4.30
2018-01-08T23:41:42.220Z,4.60
2018-01-08T23:44:08.604Z,4.60
2018-01-08T23:46:34.990Z,5.10
2018-01-08T23:49:02.106Z,5.30
2018-01-08T23:51:28.510Z,5.30
2018-01-08T23:53:54.908Z,5.40
2018-01-08T23:56:21.283Z,5.60
2018-01-08T23:58:47.722Z,5.40
